Airfield :
LOGIN :

Register | Disclaimer

   EN    FR    IT 

 










Legend :    VFR   Marginal VFR   IFR   Intensive IFR   Very Intensive IFR
Visi :
Ceiling :
>= 8 km
>= 3000ft
5 to 8 km
1000 to 3000 ft
1500m to 5 km
500 to 1000 ft
800 to 1500m
200 to 500 ft
< 800m
< 200 ft
Symbols :   Thunderstorms  Fog  Heavy snow  Heavy precipitations  Wind > 20 kt
SIGMETs :     Misc.  Thunderstorms  Icing  Turbulence  Mountain Waves  Volcanic Ashes






- Airport Elevation : 313 ft
- IATA code : LEH


LFOH - Le Havre Octeville

CURRENT METAR :
  • 100500Z AUTO 20007KT CAVOK 06/03 Q1026

EXPIRED METARs :
  • 100430Z AUTO 19006KT CAVOK 05/03 Q1026
  • 100400Z AUTO 19006KT CAVOK 05/03 Q1026
  • 100330Z AUTO 19005KT 9999 FEW036 05/03 Q1026
  • 100300Z AUTO 19005KT 9999 BKN036 05/03 Q1027
  • 100230Z AUTO 19006KT 160V220 9999 SCT036 06/03 Q1027

TAF TAF LFOH
Valid from the 09 at 12:00 until the 10 at 12:00 UTC


091100Z 0912/1012 30028G40KT 9999 SCT030
BECMG 0914/0916 34020G30KT
BECMG 0916/0919 34015KT
BECMG 0922/0924 VRB02KT
BECMG 1003/1006 19012KT
BECMG 1010/1012 20018G28KT
ATIS : +33 2 35 54 64 93



MET'MAP, your aeronautical weather chart ! - Copyright ORBIFLY December 2007 - Disclaimer

ORBIFLY MET'MAP TEAM :

Programming & Development : Alexandra Zaïnal
Concept & original design : Baudouin d'Aumeries
Assistance for programming : Marc-Olivier Méhu
Technical & hardware support : Manuel Goepfert

Contact : metmap@orbifly.com




SOURCES & CREDITS :

   NOAA